RYR84F LEAM-EBCI
Flight info
| Callsign | RYR84F |
|---|---|
| Flight time | N/A |
| Altitude | 38000 |
| Route | ESILA N865 VTB DCT RBO DCT OSTIX DCT GASMO DCT DGO N858 ABRIX DCT CNA DCT ADABI/N0426F340 DCT BOKNO UN858 VANAD UN874 BAMES UT191 PODEM UN873 BAZOS DCT BELDI DCT VEKIN Z173 ARVOL |
| Aircraft | B738/M-SDE3FGILRWY/SB1 |
Departure
| Time | 2026-04-21 11:12 |
|---|---|
| Airport | Almería Airport (LEAM) |
Arrival
| Time | N/A |
|---|---|
| Airport | Brussels South Charleroi Airport (EBCI) |
| Time | Latitude | Longitude | Altitude | Speed | Heading |
|---|---|---|---|---|---|
| 2026-04-21 10:45 | 36.84697 | -2.37073 | 67 ft | 0 kts | 148° |
| 2026-04-21 11:04 | 36.84691 | -2.37068 | 65 ft | 4 kts | 148° |
| 2026-04-21 11:05 | 36.84651 | -2.37051 | 61 ft | 8 kts | 162° |
| 2026-04-21 11:05 | 36.84646 | -2.37005 | 65 ft | 7 kts | 67° |
| 2026-04-21 11:05 | 36.84647 | -2.36946 | 66 ft | 9 kts | 114° |
| 2026-04-21 11:05 | 36.84610 | -2.36858 | 65 ft | 15 kts | 94° |
| 2026-04-21 11:06 | 36.84641 | -2.36716 | 62 ft | 19 kts | 72° |
| 2026-04-21 11:06 | 36.84679 | -2.36562 | 65 ft | 18 kts | 73° |
| 2026-04-21 11:06 | 36.84715 | -2.36413 | 62 ft | 18 kts | 73° |
| 2026-04-21 11:06 | 36.84751 | -2.36268 | 65 ft | 17 kts | 72° |
| 2026-04-21 11:07 | 36.84785 | -2.36129 | 57 ft | 17 kts | 72° |
| 2026-04-21 11:07 | 36.84822 | -2.35980 | 64 ft | 19 kts | 73° |
| 2026-04-21 11:07 | 36.84859 | -2.35827 | 61 ft | 18 kts | 72° |
| 2026-04-21 11:07 | 36.84895 | -2.35678 | 64 ft | 18 kts | 73° |
| 2026-04-21 11:08 | 36.84931 | -2.35535 | 58 ft | 17 kts | 72° |
| 2026-04-21 11:08 | 36.84953 | -2.35436 | 65 ft | 12 kts | 84° |
| 2026-04-21 11:08 | 36.84928 | -2.35350 | 62 ft | 9 kts | 133° |
| 2026-04-21 11:08 | 36.84911 | -2.35335 | 61 ft | 0 kts | 152° |
| 2026-04-21 11:10 | 36.84899 | -2.35328 | 62 ft | 4 kts | 156° |
| 2026-04-21 11:11 | 36.84842 | -2.35314 | 59 ft | 12 kts | 169° |
| 2026-04-21 11:11 | 36.84783 | -2.35434 | 53 ft | 35 kts | 252° |
| 2026-04-21 11:11 | 36.84636 | -2.36026 | 59 ft | 107 kts | 253° |
| 2026-04-21 11:11 | 36.84367 | -2.37146 | 91 ft | 161 kts | 253° |
| 2026-04-21 11:12 | 36.84051 | -2.38502 | 866 ft | 161 kts | 252° |
| 2026-04-21 11:12 | 36.83705 | -2.39906 | 1490 ft | 172 kts | 252° |
| 2026-04-21 11:12 | 36.83328 | -2.41388 | 2221 ft | 191 kts | 251° |
| 2026-04-21 11:12 | 36.82882 | -2.43068 | 2732 ft | 218 kts | 253° |
| 2026-04-21 11:13 | 36.82422 | -2.45009 | 3091 ft | 245 kts | 254° |
| 2026-04-21 11:13 | 36.81923 | -2.47061 | 3720 ft | 251 kts | 253° |
| 2026-04-21 11:13 | 36.81394 | -2.49201 | 4219 ft | 265 kts | 252° |
| 2026-04-21 11:13 | 36.80841 | -2.51430 | 4975 ft | 272 kts | 252° |
| 2026-04-21 11:14 | 36.80283 | -2.53691 | 5891 ft | 273 kts | 252° |
| 2026-04-21 11:14 | 36.79723 | -2.55957 | 6801 ft | 274 kts | 252° |
| 2026-04-21 11:14 | 36.79162 | -2.58225 | 7691 ft | 275 kts | 252° |
| 2026-04-21 11:14 | 36.78595 | -2.60518 | 8535 ft | 278 kts | 252° |
| 2026-04-21 11:15 | 36.78019 | -2.62841 | 9378 ft | 282 kts | 252° |
| 2026-04-21 11:15 | 36.77555 | -2.65230 | 10149 ft | 287 kts | 267° |
| 2026-04-21 11:15 | 36.77891 | -2.67681 | 10917 ft | 292 kts | 292° |
| 2026-04-21 11:15 | 36.78964 | -2.69842 | 11701 ft | 296 kts | 306° |
| 2026-04-21 11:16 | 36.80255 | -2.71858 | 12544 ft | 298 kts | 308° |
| 2026-04-21 11:16 | 36.81585 | -2.73856 | 13391 ft | 301 kts | 308° |
| 2026-04-21 11:16 | 36.82936 | -2.75875 | 14127 ft | 304 kts | 309° |
| 2026-04-21 11:16 | 36.84308 | -2.77898 | 14859 ft | 307 kts | 308° |
| 2026-04-21 11:17 | 36.85673 | -2.79965 | 15636 ft | 310 kts | 307° |
| 2026-04-21 11:17 | 36.87048 | -2.82062 | 16313 ft | 316 kts | 307° |
| 2026-04-21 11:17 | 36.88443 | -2.84201 | 17018 ft | 319 kts | 307° |
| 2026-04-21 11:17 | 36.89852 | -2.86365 | 17698 ft | 323 kts | 307° |
| 2026-04-21 11:18 | 36.91279 | -2.88557 | 18340 ft | 328 kts | 307° |
| 2026-04-21 11:18 | 36.92724 | -2.90780 | 18947 ft | 331 kts | 307° |
| 2026-04-21 11:18 | 36.94177 | -2.93015 | 19640 ft | 332 kts | 307° |
| 2026-04-21 11:18 | 36.95635 | -2.95260 | 20282 ft | 334 kts | 307° |
| 2026-04-21 11:19 | 36.97111 | -2.97535 | 20850 ft | 339 kts | 307° |
| 2026-04-21 11:19 | 36.98597 | -2.99829 | 21469 ft | 341 kts | 307° |
| 2026-04-21 11:19 | 37.00081 | -3.02118 | 22040 ft | 345 kts | 307° |
| 2026-04-21 11:19 | 37.01598 | -3.04462 | 22607 ft | 348 kts | 307° |
| 2026-04-21 11:20 | 37.03132 | -3.06834 | 23200 ft | 352 kts | 307° |
| 2026-04-21 11:20 | 37.04686 | -3.09240 | 23650 ft | 359 kts | 307° |
| 2026-04-21 11:20 | 37.06266 | -3.11687 | 24055 ft | 363 kts | 307° |
| 2026-04-21 11:20 | 37.07857 | -3.14152 | 24580 ft | 365 kts | 307° |
| 2026-04-21 11:21 | 37.09456 | -3.16629 | 25091 ft | 366 kts | 307° |
| 2026-04-21 11:21 | 37.11056 | -3.19113 | 25603 ft | 367 kts | 306° |
| 2026-04-21 11:21 | 37.12664 | -3.21610 | 26067 ft | 370 kts | 306° |
| 2026-04-21 11:21 | 37.14283 | -3.24127 | 26532 ft | 372 kts | 306° |
| 2026-04-21 11:22 | 37.15911 | -3.26659 | 26969 ft | 374 kts | 306° |
| 2026-04-21 11:22 | 37.17547 | -3.29206 | 27427 ft | 376 kts | 306° |
| 2026-04-21 11:22 | 37.19191 | -3.31767 | 27867 ft | 379 kts | 306° |
| 2026-04-21 11:22 | 37.20850 | -3.34354 | 28293 ft | 381 kts | 306° |
| 2026-04-21 11:23 | 37.22519 | -3.36958 | 28671 ft | 385 kts | 306° |
| 2026-04-21 11:23 | 37.24203 | -3.39590 | 29044 ft | 388 kts | 306° |
| 2026-04-21 11:23 | 37.25898 | -3.42238 | 29478 ft | 390 kts | 306° |
| 2026-04-21 11:23 | 37.27602 | -3.44902 | 29899 ft | 392 kts | 306° |
| 2026-04-21 11:24 | 37.29313 | -3.47581 | 30273 ft | 394 kts | 305° |
| 2026-04-21 11:24 | 37.31032 | -3.50274 | 30604 ft | 396 kts | 305° |
| 2026-04-21 11:24 | 37.32758 | -3.52979 | 30934 ft | 398 kts | 305° |
| 2026-04-21 11:24 | 37.34489 | -3.55694 | 31290 ft | 399 kts | 305° |
| 2026-04-21 11:25 | 37.36227 | -3.58422 | 31596 ft | 401 kts | 305° |
| 2026-04-21 11:25 | 37.38180 | -3.60954 | 31831 ft | 410 kts | 321° |
| 2026-04-21 11:25 | 37.40733 | -3.62617 | 32104 ft | 420 kts | 339° |
| 2026-04-21 11:25 | 37.43635 | -3.63234 | 32375 ft | 429 kts | 355° |
| 2026-04-21 11:26 | 37.46628 | -3.63232 | 32660 ft | 432 kts | 358° |
| 2026-04-21 11:26 | 37.49645 | -3.63143 | 32886 ft | 435 kts | 358° |
| 2026-04-21 11:26 | 37.52682 | -3.63052 | 33090 ft | 438 kts | 358° |
| 2026-04-21 11:26 | 37.55697 | -3.62986 | 33347 ft | 440 kts | 357° |
| 2026-04-21 11:27 | 37.58764 | -3.62947 | 33619 ft | 441 kts | 356° |
| 2026-04-21 11:27 | 37.61839 | -3.62922 | 33884 ft | 442 kts | 356° |
| 2026-04-21 11:27 | 37.64923 | -3.62901 | 34083 ft | 444 kts | 356° |
| 2026-04-21 11:27 | 37.68027 | -3.62879 | 34257 ft | 447 kts | 356° |
| 2026-04-21 11:28 | 37.71132 | -3.62856 | 34536 ft | 447 kts | 356° |
| 2026-04-21 11:28 | 37.74248 | -3.62831 | 34755 ft | 448 kts | 356° |
| 2026-04-21 11:28 | 37.77376 | -3.62806 | 34902 ft | 451 kts | 356° |
| 2026-04-21 11:28 | 37.80528 | -3.62781 | 35054 ft | 454 kts | 356° |
| 2026-04-21 11:29 | 37.83690 | -3.62755 | 35253 ft | 455 kts | 356° |
| 2026-04-21 11:29 | 37.86857 | -3.62729 | 35483 ft | 455 kts | 356° |
| 2026-04-21 11:29 | 37.90025 | -3.62703 | 35697 ft | 456 kts | 356° |
| 2026-04-21 11:29 | 37.93202 | -3.62678 | 35884 ft | 457 kts | 356° |
| 2026-04-21 11:30 | 37.96390 | -3.62652 | 36052 ft | 459 kts | 356° |
| 2026-04-21 11:30 | 37.99586 | -3.62627 | 36213 ft | 460 kts | 356° |
| 2026-04-21 11:30 | 38.02790 | -3.62602 | 36393 ft | 461 kts | 356° |
| 2026-04-21 11:30 | 38.05998 | -3.62575 | 36655 ft | 460 kts | 356° |
| 2026-04-21 11:31 | 38.09194 | -3.62549 | 36912 ft | 459 kts | 356° |
| 2026-04-21 11:31 | 38.12383 | -3.62523 | 37139 ft | 458 kts | 356° |
| 2026-04-21 11:31 | 38.15577 | -3.62486 | 37339 ft | 459 kts | 358° |
| 2026-04-21 11:31 | 38.18766 | -3.62299 | 37570 ft | 460 kts | 0° |
| 2026-04-21 11:32 | 38.21958 | -3.61997 | 37794 ft | 459 kts | 1° |
| 2026-04-21 11:32 | 38.25146 | -3.61652 | 37867 ft | 462 kts | 1° |
| 2026-04-21 11:32 | 38.31567 | -3.60951 | 37874 ft | 462 kts | 1° |
| 2026-04-21 11:33 | 38.37941 | -3.60298 | 37869 ft | 457 kts | 1° |
| 2026-04-21 11:33 | 38.44260 | -3.59678 | 37876 ft | 454 kts | 1° |
| 2026-04-21 11:34 | 38.50543 | -3.59068 | 37866 ft | 451 kts | 1° |
| 2026-04-21 11:34 | 38.56826 | -3.58456 | 37888 ft | 456 kts | 1° |
| 2026-04-21 11:35 | 38.63202 | -3.57834 | 37885 ft | 462 kts | 1° |
| 2026-04-21 11:35 | 38.69633 | -3.57201 | 37881 ft | 465 kts | 1° |
| 2026-04-21 11:36 | 38.76090 | -3.56564 | 37880 ft | 466 kts | 1° |
| 2026-04-21 11:36 | 38.82517 | -3.55928 | 37866 ft | 458 kts | 1° |
| 2026-04-21 11:37 | 38.88799 | -3.55307 | 37871 ft | 455 kts | 1° |
| 2026-04-21 11:37 | 38.95125 | -3.54684 | 37883 ft | 458 kts | 1° |
| 2026-04-21 11:38 | 39.01502 | -3.54053 | 37885 ft | 461 kts | 1° |
| 2026-04-21 11:38 | 39.07902 | -3.53415 | 37873 ft | 461 kts | 2° |
| 2026-04-21 11:39 | 39.14179 | -3.51765 | 37887 ft | 461 kts | 11° |
| 2026-04-21 11:39 | 39.20360 | -3.49670 | 37879 ft | 458 kts | 12° |
| 2026-04-21 11:40 | 39.26514 | -3.47596 | 37885 ft | 456 kts | 11° |
| 2026-04-21 11:40 | 39.32531 | -3.45624 | 37889 ft | 455 kts | 11° |
| 2026-04-21 11:41 | 39.38676 | -3.43635 | 37891 ft | 456 kts | 11° |
| 2026-04-21 11:41 | 39.44835 | -3.41645 | 37892 ft | 457 kts | 11° |
| 2026-04-21 11:42 | 39.51015 | -3.39643 | 37900 ft | 458 kts | 11° |
| 2026-04-21 11:42 | 39.57212 | -3.37630 | 37904 ft | 460 kts | 11° |
| 2026-04-21 11:43 | 39.63441 | -3.35602 | 37903 ft | 462 kts | 11° |
| 2026-04-21 11:43 | 39.69686 | -3.33565 | 37903 ft | 464 kts | 11° |
| 2026-04-21 11:44 | 39.75954 | -3.31517 | 37898 ft | 465 kts | 11° |
| 2026-04-21 11:44 | 39.82220 | -3.29465 | 37903 ft | 465 kts | 11° |
| 2026-04-21 11:45 | 39.88487 | -3.27409 | 37900 ft | 464 kts | 11° |
| 2026-04-21 11:45 | 39.94749 | -3.25350 | 37896 ft | 463 kts | 11° |
| 2026-04-21 11:46 | 40.00991 | -3.23295 | 37903 ft | 462 kts | 11° |
| 2026-04-21 11:46 | 40.07207 | -3.21244 | 37904 ft | 460 kts | 11° |
| 2026-04-21 11:47 | 40.13364 | -3.19209 | 37904 ft | 459 kts | 11° |
| 2026-04-21 11:47 | 40.19542 | -3.17164 | 37908 ft | 457 kts | 11° |
| 2026-04-21 11:48 | 40.25707 | -3.15119 | 37906 ft | 457 kts | 11° |
| 2026-04-21 11:48 | 40.31864 | -3.13073 | 37904 ft | 456 kts | 11° |
| 2026-04-21 11:49 | 40.38017 | -3.11024 | 37910 ft | 456 kts | 11° |
| 2026-04-21 11:49 | 40.44170 | -3.08972 | 37908 ft | 457 kts | 11° |
| 2026-04-21 11:50 | 40.50328 | -3.06914 | 37914 ft | 457 kts | 11° |
| 2026-04-21 11:50 | 40.56492 | -3.04850 | 37916 ft | 457 kts | 12° |
| 2026-04-21 11:51 | 40.61625 | -3.03128 | 37909 ft | 458 kts | 12° |
| 2026-04-21 11:51 | 40.67805 | -3.01051 | 37908 ft | 459 kts | 12° |
| 2026-04-21 11:52 | 40.73993 | -2.98968 | 37909 ft | 459 kts | 12° |
| 2026-04-21 11:52 | 40.80189 | -2.96877 | 37906 ft | 460 kts | 12° |
| 2026-04-21 11:53 | 40.86392 | -2.94781 | 37912 ft | 460 kts | 12° |
| 2026-04-21 11:53 | 40.92599 | -2.92679 | 37918 ft | 461 kts | 12° |
| 2026-04-21 11:54 | 40.98811 | -2.90571 | 37906 ft | 461 kts | 12° |
| 2026-04-21 11:54 | 41.05026 | -2.88458 | 37907 ft | 461 kts | 12° |
| 2026-04-21 11:55 | 41.11235 | -2.86343 | 37899 ft | 461 kts | 12° |
| 2026-04-21 11:55 | 41.17446 | -2.84222 | 37899 ft | 460 kts | 12° |
| 2026-04-21 11:56 | 41.23641 | -2.82104 | 37897 ft | 460 kts | 12° |
| 2026-04-21 11:56 | 41.29833 | -2.79983 | 37889 ft | 459 kts | 12° |
| 2026-04-21 11:57 | 41.36009 | -2.77862 | 37893 ft | 458 kts | 12° |
| 2026-04-21 11:57 | 41.42178 | -2.75740 | 37896 ft | 457 kts | 12° |
| 2026-04-21 11:58 | 41.48336 | -2.73618 | 37867 ft | 457 kts | 12° |
| 2026-04-21 11:58 | 41.54487 | -2.71494 | 37888 ft | 456 kts | 12° |
| 2026-04-21 11:59 | 41.60631 | -2.69368 | 37876 ft | 456 kts | 12° |
| 2026-04-21 11:59 | 41.66772 | -2.67239 | 37880 ft | 456 kts | 12° |
| 2026-04-21 12:00 | 41.72910 | -2.65107 | 37882 ft | 455 kts | 12° |
| 2026-04-21 12:00 | 41.79041 | -2.62973 | 37871 ft | 455 kts | 12° |
| 2026-04-21 12:01 | 41.85178 | -2.60833 | 37874 ft | 456 kts | 12° |
| 2026-04-21 12:01 | 41.91309 | -2.58690 | 37893 ft | 455 kts | 12° |
| 2026-04-21 12:02 | 42.00502 | -2.55470 | 37886 ft | 455 kts | 12° |
| 2026-04-21 12:03 | 42.06632 | -2.53317 | 37875 ft | 455 kts | 12° |
| 2026-04-21 12:03 | 42.12722 | -2.51174 | 37881 ft | 455 kts | 12° |
| 2026-04-21 12:04 | 42.18840 | -2.49017 | 37890 ft | 454 kts | 12° |
| 2026-04-21 12:04 | 42.24950 | -2.46858 | 37888 ft | 454 kts | 12° |
| 2026-04-21 12:05 | 42.31068 | -2.44692 | 37881 ft | 454 kts | 12° |
| 2026-04-21 12:05 | 42.37177 | -2.42526 | 37885 ft | 454 kts | 12° |
| 2026-04-21 12:06 | 42.43292 | -2.40352 | 37883 ft | 454 kts | 12° |
| 2026-04-21 12:06 | 42.49408 | -2.38174 | 37889 ft | 455 kts | 12° |
| 2026-04-21 12:07 | 42.55527 | -2.35991 | 37896 ft | 455 kts | 12° |
| 2026-04-21 12:07 | 42.61661 | -2.33797 | 37877 ft | 456 kts | 12° |
| 2026-04-21 12:08 | 42.67804 | -2.31596 | 37874 ft | 456 kts | 12° |
| 2026-04-21 12:08 | 42.73942 | -2.29391 | 37875 ft | 456 kts | 12° |
| 2026-04-21 12:09 | 42.80076 | -2.27185 | 37851 ft | 455 kts | 12° |
| 2026-04-21 12:09 | 42.86194 | -2.24978 | 37850 ft | 454 kts | 12° |
| 2026-04-21 12:10 | 42.92297 | -2.22773 | 37847 ft | 453 kts | 12° |
| 2026-04-21 12:10 | 42.98385 | -2.20569 | 37846 ft | 453 kts | 12° |
| 2026-04-21 12:11 | 43.04468 | -2.18363 | 37850 ft | 452 kts | 12° |
| 2026-04-21 12:11 | 43.10542 | -2.16155 | 37849 ft | 451 kts | 12° |
| 2026-04-21 12:12 | 43.16610 | -2.13945 | 37833 ft | 451 kts | 12° |
| 2026-04-21 12:12 | 43.22641 | -2.11744 | 37825 ft | 451 kts | 12° |
| 2026-04-21 12:13 | 43.28702 | -2.09527 | 37822 ft | 451 kts | 12° |
| 2026-04-21 12:13 | 43.34775 | -2.07301 | 37814 ft | 451 kts | 12° |
| 2026-04-21 12:14 | 43.40847 | -2.05071 | 37819 ft | 452 kts | 12° |
| 2026-04-21 12:14 | 43.46930 | -2.02832 | 37816 ft | 453 kts | 12° |
| 2026-04-21 12:15 | 43.53013 | -2.00588 | 37816 ft | 452 kts | 12° |
| 2026-04-21 12:15 | 43.59078 | -1.98346 | 37824 ft | 451 kts | 12° |
| 2026-04-21 12:16 | 43.65092 | -1.95873 | 37818 ft | 454 kts | 20° |
| 2026-04-21 12:16 | 43.70666 | -1.91736 | 37839 ft | 456 kts | 27° |
| 2026-04-21 12:17 | 43.76139 | -1.87299 | 37839 ft | 456 kts | 27° |
| 2026-04-21 12:17 | 43.81619 | -1.82881 | 37841 ft | 456 kts | 27° |
| 2026-04-21 12:18 | 43.87111 | -1.78500 | 37839 ft | 456 kts | 27° |
| 2026-04-21 12:18 | 43.92606 | -1.74130 | 37846 ft | 456 kts | 27° |
| 2026-04-21 12:19 | 43.98105 | -1.69752 | 37845 ft | 456 kts | 26° |
| 2026-04-21 12:19 | 44.03602 | -1.65364 | 37851 ft | 456 kts | 27° |
| 2026-04-21 12:20 | 44.09096 | -1.60967 | 37850 ft | 456 kts | 26° |
| 2026-04-21 12:20 | 44.14589 | -1.56561 | 37851 ft | 456 kts | 26° |
| 2026-04-21 12:21 | 44.20079 | -1.52149 | 37851 ft | 455 kts | 26° |
| 2026-04-21 12:21 | 44.25565 | -1.47730 | 37856 ft | 455 kts | 26° |
| 2026-04-21 12:22 | 44.31046 | -1.43305 | 37854 ft | 455 kts | 26° |
| 2026-04-21 12:22 | 44.36517 | -1.38880 | 37857 ft | 455 kts | 26° |
| 2026-04-21 12:23 | 44.41951 | -1.34473 | 37861 ft | 454 kts | 26° |
| 2026-04-21 12:23 | 44.47414 | -1.30035 | 37859 ft | 454 kts | 26° |
| 2026-04-21 12:24 | 44.52872 | -1.25590 | 37859 ft | 454 kts | 26° |
| 2026-04-21 12:24 | 44.58325 | -1.21140 | 37861 ft | 454 kts | 26° |
| 2026-04-21 12:25 | 44.63778 | -1.16680 | 37860 ft | 454 kts | 26° |
| 2026-04-21 12:25 | 44.69230 | -1.12211 | 37860 ft | 454 kts | 26° |
| 2026-04-21 12:26 | 44.74675 | -1.07737 | 37877 ft | 453 kts | 26° |
| 2026-04-21 12:26 | 44.80118 | -1.03256 | 37903 ft | 453 kts | 26° |
| 2026-04-21 12:27 | 44.85560 | -0.98766 | 37905 ft | 453 kts | 26° |
| 2026-04-21 12:27 | 44.90998 | -0.94268 | 37909 ft | 453 kts | 26° |
| 2026-04-21 12:28 | 44.96436 | -0.89762 | 37905 ft | 453 kts | 26° |
| 2026-04-21 12:28 | 45.01871 | -0.85247 | 37906 ft | 453 kts | 26° |
| 2026-04-21 12:29 | 45.07299 | -0.80728 | 37914 ft | 453 kts | 26° |
| 2026-04-21 12:29 | 45.12727 | -0.76199 | 37912 ft | 453 kts | 26° |
| 2026-04-21 12:30 | 45.18155 | -0.71660 | 37919 ft | 453 kts | 26° |
| 2026-04-21 12:30 | 45.23578 | -0.67115 | 37924 ft | 453 kts | 26° |
| 2026-04-21 12:31 | 45.28959 | -0.62595 | 37920 ft | 453 kts | 26° |
| 2026-04-21 12:31 | 45.34376 | -0.58034 | 37928 ft | 453 kts | 26° |
| 2026-04-21 12:32 | 45.39794 | -0.53463 | 37939 ft | 453 kts | 26° |
| 2026-04-21 12:32 | 45.45209 | -0.48883 | 37943 ft | 453 kts | 26° |
| 2026-04-21 12:33 | 45.50622 | -0.44294 | 37951 ft | 453 kts | 27° |
| 2026-04-21 12:33 | 45.56030 | -0.39700 | 37945 ft | 452 kts | 27° |
| 2026-04-21 12:34 | 45.61437 | -0.35096 | 37941 ft | 452 kts | 27° |
| 2026-04-21 12:34 | 45.66828 | -0.30486 | 37936 ft | 452 kts | 27° |
| 2026-04-21 12:35 | 45.72140 | -0.25663 | 37946 ft | 452 kts | 29° |
| 2026-04-21 12:35 | 45.77412 | -0.20752 | 37946 ft | 452 kts | 29° |
| 2026-04-21 12:36 | 45.82682 | -0.15853 | 37952 ft | 451 kts | 28° |
| 2026-04-21 12:36 | 45.87958 | -0.10963 | 37964 ft | 451 kts | 28° |
| 2026-04-21 12:37 | 45.93228 | -0.06078 | 37966 ft | 451 kts | 28° |
| 2026-04-21 12:37 | 45.98490 | -0.01190 | 37978 ft | 450 kts | 28° |
| 2026-04-21 12:38 | 46.03715 | 0.03677 | 37986 ft | 450 kts | 28° |
| 2026-04-21 12:38 | 46.08962 | 0.08575 | 37993 ft | 450 kts | 28° |
| 2026-04-21 12:39 | 46.14209 | 0.13485 | 37997 ft | 449 kts | 28° |
| 2026-04-21 12:39 | 46.19452 | 0.18403 | 38001 ft | 449 kts | 28° |
| 2026-04-21 12:40 | 46.23802 | 0.22492 | 38011 ft | 449 kts | 28° |
| 2026-04-21 12:40 | 46.29031 | 0.27417 | 38015 ft | 448 kts | 28° |
| 2026-04-21 12:41 | 46.34253 | 0.32347 | 38019 ft | 448 kts | 28° |
| 2026-04-21 12:41 | 46.39468 | 0.37282 | 38028 ft | 448 kts | 28° |
| 2026-04-21 12:42 | 46.44680 | 0.42226 | 38031 ft | 447 kts | 28° |
| 2026-04-21 12:42 | 46.49883 | 0.47172 | 38029 ft | 447 kts | 28° |
| 2026-04-21 12:43 | 46.55123 | 0.51980 | 38021 ft | 442 kts | 21° |
| 2026-04-21 12:43 | 46.60830 | 0.54836 | 38034 ft | 430 kts | 7° |
| 2026-04-21 12:44 | 46.66675 | 0.56676 | 38030 ft | 429 kts | 7° |
| 2026-04-21 12:44 | 46.72515 | 0.58523 | 38028 ft | 429 kts | 7° |
| 2026-04-21 12:45 | 46.78338 | 0.60427 | 38045 ft | 429 kts | 7° |
| 2026-04-21 12:45 | 46.84153 | 0.62355 | 38049 ft | 428 kts | 7° |
| 2026-04-21 12:46 | 46.89969 | 0.64288 | 38061 ft | 428 kts | 7° |
| 2026-04-21 12:46 | 46.95782 | 0.66223 | 38058 ft | 428 kts | 7° |
| 2026-04-21 12:47 | 47.01477 | 0.68122 | 38062 ft | 428 kts | 7° |
| 2026-04-21 12:47 | 47.07308 | 0.69626 | 38074 ft | 422 kts | 359° |
| 2026-04-21 12:48 | 47.13165 | 0.70193 | 38066 ft | 422 kts | 358° |
| 2026-04-21 12:48 | 47.18980 | 0.70712 | 38074 ft | 422 kts | 359° |
| 2026-04-21 12:49 | 47.24884 | 0.71301 | 38079 ft | 423 kts | 359° |
| 2026-04-21 12:49 | 47.30718 | 0.71911 | 38077 ft | 423 kts | 359° |
| 2026-04-21 12:50 | 47.36594 | 0.72529 | 38075 ft | 424 kts | 359° |
| 2026-04-21 12:50 | 47.42480 | 0.73149 | 38075 ft | 424 kts | 359° |
| 2026-04-21 12:51 | 47.48372 | 0.73797 | 38077 ft | 426 kts | 2° |
| 2026-04-21 12:51 | 47.54174 | 0.75961 | 38088 ft | 434 kts | 13° |
| 2026-04-21 12:52 | 47.59879 | 0.78862 | 38077 ft | 435 kts | 14° |
| 2026-04-21 12:52 | 47.65608 | 0.81750 | 38086 ft | 435 kts | 13° |
| 2026-04-21 12:53 | 47.71308 | 0.84571 | 38093 ft | 435 kts | 13° |
| 2026-04-21 12:53 | 47.77052 | 0.87406 | 38100 ft | 435 kts | 13° |
| 2026-04-21 12:54 | 47.82790 | 0.90247 | 38103 ft | 435 kts | 13° |
| 2026-04-21 12:54 | 47.88360 | 0.93037 | 38111 ft | 435 kts | 14° |
| 2026-04-21 12:55 | 47.94083 | 0.95937 | 38109 ft | 434 kts | 14° |
| 2026-04-21 12:55 | 47.99752 | 0.98845 | 38112 ft | 434 kts | 15° |
| 2026-04-21 12:56 | 48.05367 | 1.02165 | 38115 ft | 434 kts | 18° |
| 2026-04-21 12:56 | 48.10955 | 1.05608 | 38124 ft | 435 kts | 17° |
| 2026-04-21 12:57 | 48.16554 | 1.09022 | 38126 ft | 435 kts | 17° |
| 2026-04-21 12:57 | 48.22171 | 1.12415 | 38126 ft | 435 kts | 17° |
| 2026-04-21 12:58 | 48.27780 | 1.15797 | 38127 ft | 434 kts | 17° |
| 2026-04-21 12:58 | 48.33386 | 1.19184 | 38127 ft | 434 kts | 17° |
| 2026-04-21 12:59 | 48.38981 | 1.22572 | 38139 ft | 433 kts | 17° |
| 2026-04-21 12:59 | 48.44575 | 1.25968 | 38139 ft | 433 kts | 17° |
| 2026-04-21 13:00 | 48.50163 | 1.29370 | 38141 ft | 433 kts | 17° |
| 2026-04-21 13:00 | 48.55752 | 1.32779 | 38149 ft | 433 kts | 17° |
| 2026-04-21 13:01 | 48.61341 | 1.36198 | 38153 ft | 433 kts | 17° |
| 2026-04-21 13:01 | 48.66931 | 1.39625 | 38155 ft | 434 kts | 17° |
| 2026-04-21 13:02 | 48.72529 | 1.43064 | 38156 ft | 434 kts | 17° |
| 2026-04-21 13:02 | 48.80923 | 1.48238 | 38164 ft | 434 kts | 17° |
| 2026-04-21 13:03 | 48.86522 | 1.51700 | 38174 ft | 434 kts | 17° |
| 2026-04-21 13:03 | 48.92121 | 1.55170 | 38176 ft | 435 kts | 17° |
| 2026-04-21 13:04 | 48.97718 | 1.58647 | 38174 ft | 435 kts | 18° |
| 2026-04-21 13:04 | 49.03316 | 1.62134 | 38045 ft | 436 kts | 17° |
| 2026-04-21 13:05 | 49.06114 | 1.63880 | 37754 ft | 431 kts | 17° |
| 2026-04-21 13:05 | 49.08872 | 1.65606 | 37477 ft | 426 kts | 17° |
| 2026-04-21 13:05 | 49.11606 | 1.67318 | 37226 ft | 424 kts | 17° |
| 2026-04-21 13:05 | 49.14330 | 1.69024 | 36976 ft | 423 kts | 17° |
| 2026-04-21 13:06 | 49.17047 | 1.70726 | 36710 ft | 421 kts | 17° |
| 2026-04-21 13:06 | 49.19751 | 1.72423 | 36463 ft | 419 kts | 17° |
| 2026-04-21 13:06 | 49.22449 | 1.74117 | 36208 ft | 418 kts | 17° |
| 2026-04-21 13:06 | 49.25093 | 1.75781 | 35960 ft | 416 kts | 16° |
| 2026-04-21 13:07 | 49.27764 | 1.77464 | 35718 ft | 414 kts | 16° |
| 2026-04-21 13:07 | 49.30419 | 1.79138 | 35491 ft | 411 kts | 16° |
| 2026-04-21 13:07 | 49.33058 | 1.80805 | 35243 ft | 409 kts | 16° |
| 2026-04-21 13:07 | 49.35674 | 1.82459 | 34992 ft | 405 kts | 15° |
| 2026-04-21 13:08 | 49.38291 | 1.84117 | 34674 ft | 399 kts | 15° |
| 2026-04-21 13:08 | 49.40850 | 1.85738 | 34309 ft | 396 kts | 15° |
| 2026-04-21 13:08 | 49.43355 | 1.87325 | 33903 ft | 393 kts | 14° |
| 2026-04-21 13:08 | 49.45876 | 1.88925 | 33489 ft | 390 kts | 14° |
| 2026-04-21 13:09 | 49.48370 | 1.90510 | 33089 ft | 387 kts | 14° |
| 2026-04-21 13:09 | 49.50800 | 1.92311 | 32692 ft | 391 kts | 22° |
| 2026-04-21 13:09 | 49.53057 | 1.94700 | 32321 ft | 397 kts | 31° |
| 2026-04-21 13:09 | 49.55096 | 1.97587 | 31961 ft | 398 kts | 34° |
| 2026-04-21 13:10 | 49.57081 | 2.00554 | 31580 ft | 396 kts | 35° |
| 2026-04-21 13:10 | 49.59040 | 2.03520 | 31217 ft | 393 kts | 34° |
| 2026-04-21 13:10 | 49.60986 | 2.06462 | 30857 ft | 391 kts | 34° |
| 2026-04-21 13:10 | 49.62923 | 2.09375 | 30493 ft | 388 kts | 34° |
| 2026-04-21 13:11 | 49.64854 | 2.12266 | 30105 ft | 386 kts | 33° |
| 2026-04-21 13:11 | 49.66776 | 2.15135 | 29687 ft | 383 kts | 33° |
| 2026-04-21 13:11 | 49.68682 | 2.17978 | 29289 ft | 379 kts | 33° |
| 2026-04-21 13:11 | 49.70571 | 2.20796 | 28899 ft | 376 kts | 33° |
| 2026-04-21 13:12 | 49.72441 | 2.23588 | 28517 ft | 373 kts | 33° |
| 2026-04-21 13:12 | 49.74300 | 2.26364 | 28133 ft | 370 kts | 33° |
| 2026-04-21 13:12 | 49.76139 | 2.29114 | 27781 ft | 366 kts | 33° |
| 2026-04-21 13:12 | 49.77965 | 2.31848 | 27418 ft | 364 kts | 33° |
| 2026-04-21 13:13 | 49.79775 | 2.34559 | 27053 ft | 361 kts | 33° |
| 2026-04-21 13:13 | 49.81573 | 2.37256 | 26690 ft | 359 kts | 33° |
| 2026-04-21 13:13 | 49.83356 | 2.39934 | 26331 ft | 356 kts | 33° |
| 2026-04-21 13:13 | 49.85128 | 2.42598 | 25984 ft | 354 kts | 34° |
| 2026-04-21 13:14 | 49.86890 | 2.45249 | 25628 ft | 352 kts | 34° |
| 2026-04-21 13:14 | 49.88641 | 2.47887 | 25272 ft | 350 kts | 34° |
| 2026-04-21 13:14 | 49.90382 | 2.50512 | 24920 ft | 348 kts | 35° |
| 2026-04-21 13:14 | 49.92114 | 2.53125 | 24566 ft | 347 kts | 35° |
| 2026-04-21 13:15 | 49.93841 | 2.55736 | 24190 ft | 346 kts | 36° |
| 2026-04-21 13:15 | 49.95564 | 2.58342 | 23843 ft | 345 kts | 36° |
| 2026-04-21 13:15 | 49.97276 | 2.60942 | 23468 ft | 343 kts | 37° |
| 2026-04-21 13:15 | 49.98969 | 2.63523 | 23110 ft | 340 kts | 38° |
| 2026-04-21 13:16 | 50.00649 | 2.66088 | 22747 ft | 337 kts | 38° |
| 2026-04-21 13:16 | 50.02312 | 2.68628 | 22391 ft | 334 kts | 39° |
| 2026-04-21 13:16 | 50.03965 | 2.71155 | 22036 ft | 332 kts | 39° |
| 2026-04-21 13:16 | 50.05606 | 2.73665 | 21687 ft | 329 kts | 40° |
| 2026-04-21 13:17 | 50.07233 | 2.76156 | 21336 ft | 327 kts | 40° |
| 2026-04-21 13:17 | 50.08849 | 2.78633 | 20991 ft | 325 kts | 41° |
| 2026-04-21 13:17 | 50.10455 | 2.81097 | 20643 ft | 323 kts | 41° |
| 2026-04-21 13:17 | 50.12053 | 2.83550 | 20299 ft | 322 kts | 42° |
| 2026-04-21 13:18 | 50.13642 | 2.85993 | 19953 ft | 320 kts | 42° |
| 2026-04-21 13:18 | 50.15222 | 2.88422 | 19611 ft | 318 kts | 42° |
| 2026-04-21 13:18 | 50.16794 | 2.90844 | 19263 ft | 317 kts | 43° |
| 2026-04-21 13:18 | 50.18354 | 2.93250 | 18932 ft | 315 kts | 43° |
| 2026-04-21 13:19 | 50.19907 | 2.95647 | 18597 ft | 313 kts | 43° |
| 2026-04-21 13:19 | 50.21454 | 2.98037 | 18214 ft | 312 kts | 43° |
| 2026-04-21 13:19 | 50.22991 | 3.00414 | 17850 ft | 310 kts | 44° |
| 2026-04-21 13:19 | 50.24518 | 3.02779 | 17491 ft | 308 kts | 44° |
| 2026-04-21 13:20 | 50.25522 | 3.04334 | 17278 ft | 306 kts | 44° |
| 2026-04-21 13:20 | 50.27532 | 3.07451 | 16840 ft | 303 kts | 44° |
| 2026-04-21 13:20 | 50.29023 | 3.09766 | 16522 ft | 300 kts | 44° |
| 2026-04-21 13:20 | 50.30499 | 3.12059 | 16200 ft | 298 kts | 44° |
| 2026-04-21 13:21 | 50.31967 | 3.14342 | 15875 ft | 297 kts | 44° |
| 2026-04-21 13:21 | 50.33426 | 3.16612 | 15555 ft | 295 kts | 44° |
| 2026-04-21 13:21 | 50.34857 | 3.18841 | 15256 ft | 293 kts | 45° |
| 2026-04-21 13:21 | 50.36318 | 3.21119 | 14927 ft | 292 kts | 45° |
| 2026-04-21 13:22 | 50.37733 | 3.23327 | 14613 ft | 290 kts | 45° |
| 2026-04-21 13:22 | 50.39159 | 3.25555 | 14293 ft | 289 kts | 45° |
| 2026-04-21 13:22 | 50.40579 | 3.27775 | 13983 ft | 288 kts | 45° |
| 2026-04-21 13:22 | 50.41980 | 3.29959 | 13770 ft | 282 kts | 45° |
| 2026-04-21 13:23 | 50.43366 | 3.32114 | 13456 ft | 279 kts | 45° |
| 2026-04-21 13:23 | 50.44736 | 3.34251 | 13152 ft | 277 kts | 45° |
| 2026-04-21 13:23 | 50.46100 | 3.36383 | 12839 ft | 276 kts | 46° |
| 2026-04-21 13:23 | 50.47454 | 3.38499 | 12538 ft | 274 kts | 46° |
| 2026-04-21 13:24 | 50.48799 | 3.40602 | 12304 ft | 271 kts | 46° |
| 2026-04-21 13:24 | 50.50129 | 3.42684 | 12262 ft | 270 kts | 46° |
| 2026-04-21 13:24 | 50.51444 | 3.44743 | 12245 ft | 262 kts | 46° |
| 2026-04-21 13:24 | 50.52284 | 3.46060 | 12238 ft | 254 kts | 46° |
| 2026-04-21 13:25 | 50.53770 | 3.48767 | 12228 ft | 236 kts | 65° |
| 2026-04-21 13:25 | 50.54193 | 3.51173 | 12237 ft | 225 kts | 84° |
| 2026-04-21 13:25 | 50.54094 | 3.53574 | 12251 ft | 218 kts | 98° |
| 2026-04-21 13:25 | 50.53895 | 3.55119 | 12252 ft | 219 kts | 99° |
| 2026-04-21 13:26 | 50.53425 | 3.58337 | 12259 ft | 231 kts | 100° |
| 2026-04-21 13:26 | 50.53180 | 3.59979 | 12264 ft | 233 kts | 100° |
| 2026-04-21 13:26 | 50.52811 | 3.62465 | 12248 ft | 233 kts | 100° |
| 2026-04-21 13:26 | 50.52446 | 3.64937 | 12233 ft | 231 kts | 100° |
| 2026-04-21 13:27 | 50.52086 | 3.67384 | 12230 ft | 229 kts | 100° |
| 2026-04-21 13:27 | 50.51730 | 3.69812 | 12241 ft | 227 kts | 100° |
| 2026-04-21 13:27 | 50.51378 | 3.72229 | 12241 ft | 226 kts | 99° |
| 2026-04-21 13:27 | 50.51029 | 3.74635 | 12229 ft | 225 kts | 100° |
| 2026-04-21 13:28 | 50.50681 | 3.77028 | 12244 ft | 225 kts | 100° |
| 2026-04-21 13:28 | 50.50331 | 3.79434 | 12243 ft | 227 kts | 100° |
| 2026-04-21 13:28 | 50.49980 | 3.81853 | 12235 ft | 228 kts | 99° |
| 2026-04-21 13:28 | 50.49625 | 3.84296 | 12242 ft | 229 kts | 100° |
| 2026-04-21 13:29 | 50.49269 | 3.86739 | 12237 ft | 230 kts | 100° |
| 2026-04-21 13:29 | 50.48911 | 3.89193 | 12235 ft | 230 kts | 100° |
| 2026-04-21 13:29 | 50.48443 | 3.92392 | 11976 ft | 224 kts | 100° |
| 2026-04-21 13:29 | 50.48207 | 3.94007 | 11691 ft | 225 kts | 100° |
| 2026-04-21 13:30 | 50.47850 | 3.96453 | 10945 ft | 239 kts | 101° |
| 2026-04-21 13:30 | 50.47463 | 3.99099 | 10190 ft | 254 kts | 101° |
| 2026-04-21 13:30 | 50.47065 | 4.01809 | 9662 ft | 254 kts | 101° |